createdAt,value
2023-04-22T00:00:38.395Z,65.36
2023-04-22T00:03:17.516Z,65.64
2023-04-22T00:05:45.858Z,65.48
2023-04-22T00:08:14.276Z,65.89
2023-04-22T00:10:42.280Z,65.74
2023-04-22T00:13:10.327Z,66.10
2023-04-22T00:15:38.345Z,66.24
2023-04-22T00:18:07.575Z,66.17
2023-04-22T00:20:36.590Z,66.48
2023-04-22T00:23:04.665Z,66.49
2023-04-22T00:25:33.762Z,66.77
2023-04-22T00:28:01.629Z,66.98
2023-04-22T00:30:29.588Z,67.06
2023-04-22T00:32:57.792Z,67.33
2023-04-22T00:35:25.977Z,67.45
2023-04-22T00:37:54.209Z,67.58
2023-04-22T00:40:22.380Z,67.83
2023-04-22T00:42:51.228Z,67.87
2023-04-22T00:45:21.142Z,68.15
2023-04-22T00:47:49.579Z,68.00
2023-04-22T00:50:17.742Z,68.11
2023-04-22T00:52:46.107Z,68.45
2023-04-22T00:55:14.115Z,68.46
2023-04-22T00:57:42.869Z,68.54
2023-04-22T01:00:11.793Z,68.48
2023-04-22T01:02:40.393Z,68.82
2023-04-22T01:05:12.098Z,68.94
2023-04-22T01:07:40.276Z,69.06
2023-04-22T01:10:08.996Z,69.25
2023-04-22T01:12:37.252Z,69.55
2023-04-22T01:15:06.796Z,69.57
2023-04-22T01:17:35.617Z,69.68
2023-04-22T01:20:05.612Z,69.46
2023-04-22T01:22:41.431Z,69.81
2023-04-22T01:25:11.483Z,69.98
2023-04-22T01:27:40.311Z,69.93
2023-04-22T01:30:10.052Z,70.23
2023-04-22T01:32:41.267Z,70.38
2023-04-22T01:35:11.301Z,70.33
2023-04-22T01:37:40.334Z,70.57
2023-04-22T01:40:12.496Z,70.47
2023-04-22T01:42:40.617Z,70.74
2023-04-22T01:45:09.501Z,70.96
2023-04-22T01:47:37.562Z,70.94
2023-04-22T01:50:06.345Z,71.15
2023-04-22T01:52:34.403Z,71.07
2023-04-22T01:55:03.264Z,70.98
2023-04-22T01:57:31.403Z,71.42
2023-04-22T01:59:59.598Z,71.22
2023-04-22T02:02:27.787Z,71.30
2023-04-22T02:04:56.351Z,71.65
2023-04-22T02:07:24.519Z,71.58
2023-04-22T02:09:52.675Z,71.57
2023-04-22T02:12:20.899Z,71.95
2023-04-22T02:14:49.045Z,71.85
2023-04-22T02:17:18.042Z,72.15
2023-04-22T02:19:47.430Z,72.32
2023-04-22T02:22:17.713Z,72.31
2023-04-22T02:24:45.905Z,72.66
2023-04-22T02:27:13.995Z,72.82
2023-04-22T02:29:42.691Z,72.93
2023-04-22T02:32:11.043Z,73.01
2023-04-22T02:34:39.020Z,72.82
2023-04-22T02:37:07.090Z,73.04
2023-04-22T02:39:35.405Z,73.18
2023-04-22T02:42:03.944Z,73.37
2023-04-22T02:44:31.913Z,73.35
2023-04-22T02:47:00.298Z,73.51
2023-04-22T02:49:28.574Z,73.81
2023-04-22T02:51:57.904Z,73.64
2023-04-22T02:54:25.949Z,73.90
2023-04-22T02:56:54.212Z,73.98
2023-04-22T03:07:01.973Z,74.09
2023-04-22T03:09:30.781Z,74.39
2023-04-22T03:11:58.802Z,74.47
2023-04-22T03:14:26.838Z,74.43
2023-04-22T03:16:55.933Z,74.58
2023-04-22T03:19:24.365Z,75.00
2023-04-22T03:21:52.433Z,74.73
2023-04-22T03:24:22.354Z,75.08
2023-04-22T03:26:52.374Z,75.14
2023-04-22T03:29:20.444Z,75.29
2023-04-22T03:31:49.306Z,75.40
2023-04-22T03:34:17.853Z,75.39
2023-04-22T03:36:46.612Z,75.41
2023-04-22T03:39:14.781Z,75.64
2023-04-22T03:41:43.618Z,75.65
2023-04-22T03:44:12.040Z,75.99
2023-04-22T03:46:40.108Z,75.86
2023-04-22T03:49:15.342Z,76.03
2023-04-22T03:51:44.068Z,75.88
2023-04-22T03:54:14.766Z,76.13
2023-04-22T03:56:47.965Z,75.94
2023-04-22T03:59:17.615Z,75.93
2023-04-22T04:01:47.639Z,75.81
2023-04-22T04:04:17.404Z,75.96
2023-04-22T04:06:51.834Z,76.32
2023-04-22T04:09:21.469Z,76.27
2023-04-22T04:11:49.492Z,76.23
2023-04-22T04:14:18.997Z,76.28
2023-04-22T04:16:48.827Z,76.42
2023-04-22T04:19:38.194Z,76.66
2023-04-22T04:22:07.185Z,76.49
2023-04-22T04:24:42.396Z,76.54
2023-04-22T04:27:16.421Z,76.72
2023-04-22T04:29:49.712Z,76.95
2023-04-22T04:32:24.408Z,76.70
2023-04-22T04:34:53.237Z,76.57
2023-04-22T04:37:24.284Z,76.90
2023-04-22T04:40:01.860Z,77.20
2023-04-22T04:42:40.918Z,77.38
2023-04-22T04:45:12.078Z,77.05
2023-04-22T04:47:41.212Z,76.96
2023-04-22T04:50:20.462Z,76.82
2023-04-22T04:52:52.727Z,77.00
2023-04-22T04:55:24.839Z,78.50
2023-04-22T04:57:53.106Z,79.17
2023-04-22T05:00:21.557Z,78.98
2023-04-22T05:02:50.648Z,78.05
2023-04-22T05:05:19.453Z,77.89
2023-04-22T05:07:48.020Z,74.60
2023-04-22T05:10:16.372Z,72.10
2023-04-22T05:12:47.478Z,71.27
2023-04-22T05:15:20.334Z,71.23
2023-04-22T05:17:48.599Z,71.26
2023-04-22T05:20:17.028Z,71.51
2023-04-22T05:22:46.194Z,71.56
2023-04-22T05:25:17.033Z,71.70
2023-04-22T05:27:53.282Z,71.79
2023-04-22T05:30:21.591Z,71.96
2023-04-22T05:32:49.676Z,71.93
2023-04-22T05:35:19.738Z,71.78
2023-04-22T05:37:47.746Z,71.56
2023-04-22T05:40:16.293Z,71.42
2023-04-22T05:42:44.670Z,71.29
2023-04-22T05:45:13.094Z,71.36
2023-04-22T05:47:41.565Z,71.30
2023-04-22T05:50:09.808Z,71.25
2023-04-22T05:52:48.525Z,71.15
2023-04-22T05:55:18.030Z,70.72
2023-04-22T05:57:46.410Z,70.68
2023-04-22T06:00:35.987Z,70.22
2023-04-22T06:03:27.333Z,70.16
2023-04-22T06:05:55.750Z,69.99
2023-04-22T06:08:24.161Z,69.87
2023-04-22T06:10:52.266Z,69.55
2023-04-22T06:13:21.550Z,69.38
2023-04-22T06:15:50.210Z,69.30
2023-04-22T06:18:18.499Z,68.92
2023-04-22T06:20:47.080Z,68.71
2023-04-22T06:23:15.148Z,68.36
2023-04-22T06:25:43.893Z,68.45
2023-04-22T06:28:12.127Z,68.43
2023-04-22T06:30:40.599Z,67.80
2023-04-22T06:33:10.244Z,67.24
2023-04-22T06:35:38.304Z,67.20
2023-04-22T06:38:06.470Z,67.01
2023-04-22T06:40:41.684Z,66.74
2023-04-22T06:43:30.326Z,66.51
2023-04-22T06:46:18.897Z,65.94
2023-04-22T06:48:53.437Z,65.49
2023-04-22T06:51:44.415Z,65.14
2023-04-22T06:54:13.105Z,64.79
2023-04-22T06:56:41.087Z,64.38
2023-04-22T06:59:09.156Z,64.01
2023-04-22T07:01:37.431Z,63.67
2023-04-22T07:04:05.515Z,63.21
2023-04-22T07:06:33.577Z,62.76
2023-04-22T07:09:01.937Z,62.48
2023-04-22T07:11:31.697Z,62.31
2023-04-22T07:14:04.245Z,62.50
2023-04-22T07:16:32.290Z,61.54
2023-04-22T07:19:00.800Z,60.83
2023-04-22T07:21:28.861Z,60.59
2023-04-22T07:23:56.920Z,60.38
2023-04-22T07:26:25.393Z,60.03
2023-04-22T07:28:53.361Z,59.46
2023-04-22T07:31:21.520Z,59.19
2023-04-22T07:33:49.809Z,58.86
2023-04-22T07:36:18.002Z,58.28
2023-04-22T07:38:46.393Z,58.29
2023-04-22T07:41:15.062Z,58.07
2023-04-22T07:43:44.244Z,57.42
2023-04-22T07:46:12.452Z,55.88
2023-04-22T07:48:42.836Z,55.56
2023-04-22T07:51:17.016Z,55.72
2023-04-22T07:53:48.731Z,55.01
2023-04-22T07:56:16.824Z,54.40
2023-04-22T07:58:44.813Z,54.35
2023-04-22T08:01:12.804Z,54.02
2023-04-22T08:03:41.207Z,53.21
2023-04-22T08:06:09.783Z,52.50
2023-04-22T08:08:37.871Z,51.89
2023-04-22T08:11:05.732Z,51.67
2023-04-22T08:13:33.738Z,51.22
2023-04-22T08:16:04.894Z,50.87
2023-04-22T08:18:33.034Z,50.37
2023-04-22T08:21:02.758Z,49.97
2023-04-22T08:23:30.815Z,49.53
2023-04-22T08:25:58.900Z,49.70
2023-04-22T08:28:27.246Z,49.57
2023-04-22T08:30:55.348Z,49.37
2023-04-22T08:33:24.772Z,49.00
2023-04-22T08:35:54.835Z,48.29
2023-04-22T08:38:24.371Z,48.13
2023-04-22T08:40:57.440Z,47.84
2023-04-22T08:43:27.077Z,47.69
2023-04-22T08:45:56.057Z,47.37
2023-04-22T08:48:24.204Z,47.02
2023-04-22T08:50:53.912Z,46.69
2023-04-22T08:53:24.406Z,46.75
2023-04-22T08:55:57.509Z,46.10
2023-04-22T08:58:25.761Z,46.17
2023-04-22T09:00:54.997Z,45.83
2023-04-22T09:03:24.002Z,45.28
2023-04-22T09:05:54.329Z,44.76
2023-04-22T09:08:22.495Z,44.58
2023-04-22T09:10:50.787Z,44.75
2023-04-22T09:13:21.308Z,44.92
2023-04-22T09:15:49.480Z,44.41
2023-04-22T09:18:19.319Z,44.87
2023-04-22T09:20:49.104Z,44.57
2023-04-22T09:23:17.237Z,43.85
2023-04-22T09:25:46.454Z,43.56
2023-04-22T09:28:19.058Z,43.79
2023-04-22T09:30:47.759Z,43.82
2023-04-22T09:33:17.802Z,43.50
2023-04-22T09:35:45.934Z,43.36
2023-04-22T09:38:13.900Z,42.93
